sensor_id;sensor_type;location;lat;lon;timestamp;pressure;altitude;pressure_sealevel;temperature
40199;BMP280;25906;43.536;26.068;2023-10-31T00:00:11;99014.69;;;16.36
40199;BMP280;25906;43.536;26.068;2023-10-31T00:02:57;99012.75;;;16.37
40199;BMP280;25906;43.536;26.068;2023-10-31T00:05:42;99005.38;;;16.32
40199;BMP280;25906;43.536;26.068;2023-10-31T00:08:28;99001.63;;;16.38
40199;BMP280;25906;43.536;26.068;2023-10-31T00:11:14;98996.19;;;16.33
40199;BMP280;25906;43.536;26.068;2023-10-31T00:13:59;99000.63;;;16.36
40199;BMP280;25906;43.536;26.068;2023-10-31T00:16:45;98998.66;;;16.36
40199;BMP280;25906;43.536;26.068;2023-10-31T00:19:30;98996.84;;;16.19
40199;BMP280;25906;43.536;26.068;2023-10-31T00:22:16;98994.16;;;16.19
40199;BMP280;25906;43.536;26.068;2023-10-31T00:25:01;98995.28;;;16.03
40199;BMP280;25906;43.536;26.068;2023-10-31T00:27:48;98988.94;;;16.00
40199;BMP280;25906;43.536;26.068;2023-10-31T00:30:33;98988.97;;;15.91
40199;BMP280;25906;43.536;26.068;2023-10-31T00:33:19;98974.19;;;15.81
40199;BMP280;25906;43.536;26.068;2023-10-31T00:36:04;98980.66;;;15.89
40199;BMP280;25906;43.536;26.068;2023-10-31T00:38:50;98969.56;;;15.82
40199;BMP280;25906;43.536;26.068;2023-10-31T00:41:36;98966.91;;;15.82
40199;BMP280;25906;43.536;26.068;2023-10-31T00:44:21;98964.19;;;15.91
40199;BMP280;25906;43.536;26.068;2023-10-31T00:47:07;98959.53;;;15.77
40199;BMP280;25906;43.536;26.068;2023-10-31T00:49:52;98957.63;;;15.68
40199;BMP280;25906;43.536;26.068;2023-10-31T00:52:38;98959.13;;;15.60
40199;BMP280;25906;43.536;26.068;2023-10-31T00:55:23;98952.19;;;15.53
40199;BMP280;25906;43.536;26.068;2023-10-31T00:58:10;98963.97;;;15.61
40199;BMP280;25906;43.536;26.068;2023-10-31T01:00:55;98951.28;;;15.47
40199;BMP280;25906;43.536;26.068;2023-10-31T01:03:41;98956.94;;;15.40
40199;BMP280;25906;43.536;26.068;2023-10-31T01:06:27;98953.41;;;15.43
40199;BMP280;25906;43.536;26.068;2023-10-31T01:09:12;98952.66;;;15.34
40199;BMP280;25906;43.536;26.068;2023-10-31T01:11:58;98941.59;;;15.26
40199;BMP280;25906;43.536;26.068;2023-10-31T01:14:43;98942.13;;;15.39
40199;BMP280;25906;43.536;26.068;2023-10-31T01:17:29;98935.16;;;15.42
40199;BMP280;25906;43.536;26.068;2023-10-31T01:20:15;98939.75;;;15.41
40199;BMP280;25906;43.536;26.068;2023-10-31T01:23:01;98942.44;;;15.41
40199;BMP280;25906;43.536;26.068;2023-10-31T01:25:46;98936.78;;;15.48
40199;BMP280;25906;43.536;26.068;2023-10-31T01:28:32;98946.13;;;15.53
40199;BMP280;25906;43.536;26.068;2023-10-31T01:31:17;98941.06;;;15.55
40199;BMP280;25906;43.536;26.068;2023-10-31T01:34:03;98941.22;;;15.51
40199;BMP280;25906;43.536;26.068;2023-10-31T01:36:48;98942.44;;;15.41
40199;BMP280;25906;43.536;26.068;2023-10-31T01:39:36;98932.22;;;15.31
40199;BMP280;25906;43.536;26.068;2023-10-31T01:42:21;98939.22;;;15.19
40199;BMP280;25906;43.536;26.068;2023-10-31T01:45:07;98934.19;;;15.21
40199;BMP280;25906;43.536;26.068;2023-10-31T01:47:53;98929.72;;;15.27
40199;BMP280;25906;43.536;26.068;2023-10-31T01:50:39;98928.88;;;15.21
40199;BMP280;25906;43.536;26.068;2023-10-31T01:53:25;98928.69;;;15.06
40199;BMP280;25906;43.536;26.068;2023-10-31T01:56:11;98932.41;;;15.09
40199;BMP280;25906;43.536;26.068;2023-10-31T01:58:56;98927.38;;;15.02
40199;BMP280;25906;43.536;26.068;2023-10-31T02:01:42;98929.00;;;15.08
40199;BMP280;25906;43.536;26.068;2023-10-31T02:04:27;98920.25;;;15.26
40199;BMP280;25906;43.536;26.068;2023-10-31T02:07:13;98920.66;;;15.34
40199;BMP280;25906;43.536;26.068;2023-10-31T02:09:58;98922.44;;;15.37
40199;BMP280;25906;43.536;26.068;2023-10-31T02:12:44;98928.06;;;15.39
40199;BMP280;25906;43.536;26.068;2023-10-31T02:15:29;98920.34;;;15.50
40199;BMP280;25906;43.536;26.068;2023-10-31T02:18:15;98913.16;;;15.56
40199;BMP280;25906;43.536;26.068;2023-10-31T02:21:00;98922.25;;;15.49
40199;BMP280;25906;43.536;26.068;2023-10-31T02:23:59;98914.56;;;15.42
40199;BMP280;25906;43.536;26.068;2023-10-31T02:26:45;98912.91;;;15.54
40199;BMP280;25906;43.536;26.068;2023-10-31T02:29:30;98912.78;;;15.39
40199;BMP280;25906;43.536;26.068;2023-10-31T02:32:16;98914.31;;;15.31
40199;BMP280;25906;43.536;26.068;2023-10-31T02:35:01;98912.97;;;15.36
40199;BMP280;25906;43.536;26.068;2023-10-31T02:37:47;98911.63;;;15.31
40199;BMP280;25906;43.536;26.068;2023-10-31T02:40:33;98905.00;;;15.27
40199;BMP280;25906;43.536;26.068;2023-10-31T02:43:18;98910.72;;;15.34
40199;BMP280;25906;43.536;26.068;2023-10-31T02:46:04;98904.06;;;15.30
40199;BMP280;25906;43.536;26.068;2023-10-31T02:48:49;98902.16;;;15.30
40199;BMP280;25906;43.536;26.068;2023-10-31T02:51:35;98905.63;;;15.13
40199;BMP280;25906;43.536;26.068;2023-10-31T02:54:20;98908.13;;;15.16
40199;BMP280;25906;43.536;26.068;2023-10-31T02:57:08;98909.47;;;15.02
40199;BMP280;25906;43.536;26.068;2023-10-31T02:59:53;98904.28;;;14.99
40199;BMP280;25906;43.536;26.068;2023-10-31T03:02:39;98904.03;;;14.88
40199;BMP280;25906;43.536;26.068;2023-10-31T03:05:25;98910.81;;;14.98
40199;BMP280;25906;43.536;26.068;2023-10-31T03:08:10;98904.47;;;14.86
40199;BMP280;25906;43.536;26.068;2023-10-31T03:10:57;98908.75;;;14.84
40199;BMP280;25906;43.536;26.068;2023-10-31T03:13:43;98904.91;;;14.85
40199;BMP280;25906;43.536;26.068;2023-10-31T03:16:28;98910.22;;;14.85
40199;BMP280;25906;43.536;26.068;2023-10-31T03:19:14;98898.53;;;14.91
40199;BMP280;25906;43.536;26.068;2023-10-31T03:22:00;98898.69;;;14.79
40199;BMP280;25906;43.536;26.068;2023-10-31T03:24:46;98894.56;;;14.87
40199;BMP280;25906;43.536;26.068;2023-10-31T03:27:31;98898.38;;;14.86
40199;BMP280;25906;43.536;26.068;2023-10-31T03:30:16;98900.00;;;14.92
40199;BMP280;25906;43.536;26.068;2023-10-31T03:33:02;98904.59;;;14.83
40199;BMP280;25906;43.536;26.068;2023-10-31T03:35:47;98895.72;;;14.86
40199;BMP280;25906;43.536;26.068;2023-10-31T03:38:33;98882.09;;;14.84
40199;BMP280;25906;43.536;26.068;2023-10-31T03:41:19;98892.31;;;14.94
40199;BMP280;25906;43.536;26.068;2023-10-31T03:44:04;98896.75;;;14.88
40199;BMP280;25906;43.536;26.068;2023-10-31T03:46:50;98896.88;;;14.94
40199;BMP280;25906;43.536;26.068;2023-10-31T03:49:39;98898.25;;;14.89
40199;BMP280;25906;43.536;26.068;2023-10-31T03:52:25;98884.91;;;14.98
40199;BMP280;25906;43.536;26.068;2023-10-31T03:55:10;98885.94;;;14.92
40199;BMP280;25906;43.536;26.068;2023-10-31T03:57:56;98881.22;;;14.87
40199;BMP280;25906;43.536;26.068;2023-10-31T04:00:41;98876.78;;;14.93
40199;BMP280;25906;43.536;26.068;2023-10-31T04:03:27;98887.44;;;14.93
40199;BMP280;25906;43.536;26.068;2023-10-31T04:06:12;98883.25;;;15.01
40199;BMP280;25906;43.536;26.068;2023-10-31T04:08:58;98888.59;;;14.92
40199;BMP280;25906;43.536;26.068;2023-10-31T04:11:43;98880.06;;;14.88
40199;BMP280;25906;43.536;26.068;2023-10-31T04:14:29;98875.72;;;14.90
40199;BMP280;25906;43.536;26.068;2023-10-31T04:17:14;98867.44;;;14.88
40199;BMP280;25906;43.536;26.068;2023-10-31T04:20:00;98867.16;;;14.68
40199;BMP280;25906;43.536;26.068;2023-10-31T04:22:45;98869.81;;;14.77
40199;BMP280;25906;43.536;26.068;2023-10-31T04:25:31;98881.53;;;14.80
40199;BMP280;25906;43.536;26.068;2023-10-31T04:28:16;98878.56;;;14.69
40199;BMP280;25906;43.536;26.068;2023-10-31T04:31:02;98880.78;;;14.70
40199;BMP280;25906;43.536;26.068;2023-10-31T04:33:48;98874.72;;;14.70
40199;BMP280;25906;43.536;26.068;2023-10-31T04:36:33;98867.63;;;14.76
40199;BMP280;25906;43.536;26.068;2023-10-31T04:39:18;98867.59;;;14.85
40199;BMP280;25906;43.536;26.068;2023-10-31T04:42:04;98869.06;;;14.86
40199;BMP280;25906;43.536;26.068;2023-10-31T04:44:49;98868.34;;;14.85
40199;BMP280;25906;43.536;26.068;2023-10-31T04:47:35;98872.31;;;14.90
40199;BMP280;25906;43.536;26.068;2023-10-31T04:50:20;98871.31;;;14.78
40199;BMP280;25906;43.536;26.068;2023-10-31T04:53:07;98874.41;;;14.77
40199;BMP280;25906;43.536;26.068;2023-10-31T04:55:52;98875.44;;;14.79
40199;BMP280;25906;43.536;26.068;2023-10-31T04:58:37;98871.44;;;14.75
40199;BMP280;25906;43.536;26.068;2023-10-31T05:01:23;98870.88;;;14.71
40199;BMP280;25906;43.536;26.068;2023-10-31T05:04:09;98874.13;;;14.75
40199;BMP280;25906;43.536;26.068;2023-10-31T05:06:54;98886.41;;;14.72
40199;BMP280;25906;43.536;26.068;2023-10-31T05:09:41;98874.84;;;14.75
40199;BMP280;25906;43.536;26.068;2023-10-31T05:12:26;98871.16;;;14.73
40199;BMP280;25906;43.536;26.068;2023-10-31T05:15:12;98877.97;;;14.74
40199;BMP280;25906;43.536;26.068;2023-10-31T05:17:58;98880.19;;;14.75
40199;BMP280;25906;43.536;26.068;2023-10-31T05:20:43;98880.06;;;14.70
40199;BMP280;25906;43.536;26.068;2023-10-31T05:23:29;98885.81;;;14.77
40199;BMP280;25906;43.536;26.068;2023-10-31T05:26:14;98887.28;;;14.78
40199;BMP280;25906;43.536;26.068;2023-10-31T05:29:00;98887.72;;;14.86
40199;BMP280;25906;43.536;26.068;2023-10-31T05:31:45;98887.88;;;14.82
40199;BMP280;25906;43.536;26.068;2023-10-31T05:34:31;98881.97;;;14.87
40199;BMP280;25906;43.536;26.068;2023-10-31T05:37:16;98887.44;;;14.93
40199;BMP280;25906;43.536;26.068;2023-10-31T05:40:02;98882.53;;;14.91
40199;BMP280;25906;43.536;26.068;2023-10-31T05:42:47;98882.97;;;14.90
40199;BMP280;25906;43.536;26.068;2023-10-31T05:45:33;98884.63;;;14.96
40199;BMP280;25906;43.536;26.068;2023-10-31T05:48:19;98876.78;;;14.93
40199;BMP280;25906;43.536;26.068;2023-10-31T05:51:10;98885.78;;;14.95
40199;BMP280;25906;43.536;26.068;2023-10-31T05:53:55;98886.22;;;15.03
40199;BMP280;25906;43.536;26.068;2023-10-31T05:56:41;98882.38;;;15.04
40199;BMP280;25906;43.536;26.068;2023-10-31T05:59:27;98878.63;;;15.20
40199;BMP280;25906;43.536;26.068;2023-10-31T06:02:13;98878.00;;;15.34
40199;BMP280;25906;43.536;26.068;2023-10-31T06:04:59;98880.22;;;15.35
40199;BMP280;25906;43.536;26.068;2023-10-31T06:07:45;98892.56;;;15.56
40199;BMP280;25906;43.536;26.068;2023-10-31T06:10:30;98893.78;;;15.55
40199;BMP280;25906;43.536;26.068;2023-10-31T06:27:45;98881.94;;;16.28
40199;BMP280;25906;43.536;26.068;2023-10-31T06:30:30;98883.56;;;16.49
40199;BMP280;25906;43.536;26.068;2023-10-31T06:33:16;98880.00;;;16.66
40199;BMP280;25906;43.536;26.068;2023-10-31T06:36:01;98873.53;;;16.73
40199;BMP280;25906;43.536;26.068;2023-10-31T06:38:47;98877.16;;;16.85
40199;BMP280;25906;43.536;26.068;2023-10-31T06:41:33;98874.38;;;16.94
40199;BMP280;25906;43.536;26.068;2023-10-31T06:44:18;98878.72;;;17.06
40199;BMP280;25906;43.536;26.068;2023-10-31T06:47:04;98882.38;;;17.23
40199;BMP280;25906;43.536;26.068;2023-10-31T06:49:49;98876.66;;;17.30
40199;BMP280;25906;43.536;26.068;2023-10-31T06:52:35;98883.09;;;17.38
40199;BMP280;25906;43.536;26.068;2023-10-31T06:55:20;98886.75;;;17.55
40199;BMP280;25906;43.536;26.068;2023-10-31T06:58:06;98875.19;;;17.64
40199;BMP280;25906;43.536;26.068;2023-10-31T07:00:51;98878.25;;;17.77
40199;BMP280;25906;43.536;26.068;2023-10-31T07:03:37;98877.69;;;17.88
40199;BMP280;25906;43.536;26.068;2023-10-31T07:06:23;98873.28;;;18.05
40199;BMP280;25906;43.536;26.068;2023-10-31T07:09:08;98862.47;;;18.19
40199;BMP280;25906;43.536;26.068;2023-10-31T07:11:55;98868.69;;;18.31
40199;BMP280;25906;43.536;26.068;2023-10-31T07:14:40;98867.69;;;18.54
40199;BMP280;25906;43.536;26.068;2023-10-31T07:17:26;98862.63;;;18.62
40199;BMP280;25906;43.536;26.068;2023-10-31T07:20:11;98866.16;;;18.73
40199;BMP280;25906;43.536;26.068;2023-10-31T07:22:56;98867.28;;;18.93
40199;BMP280;25906;43.536;26.068;2023-10-31T07:25:42;98869.53;;;19.00
40199;BMP280;25906;43.536;26.068;2023-10-31T07:28:28;98865.69;;;19.12
40199;BMP280;25906;43.536;26.068;2023-10-31T07:31:14;98864.59;;;19.24
40199;BMP280;25906;43.536;26.068;2023-10-31T07:34:00;98859.03;;;19.38
40199;BMP280;25906;43.536;26.068;2023-10-31T07:36:45;98857.91;;;19.56
40199;BMP280;25906;43.536;26.068;2023-10-31T07:39:30;98856.78;;;19.74
40199;BMP280;25906;43.536;26.068;2023-10-31T07:42:16;98852.41;;;19.87
40199;BMP280;25906;43.536;26.068;2023-10-31T07:45:02;98847.56;;;20.08
40199;BMP280;25906;43.536;26.068;2023-10-31T07:47:47;98847.13;;;20.26
40199;BMP280;25906;43.536;26.068;2023-10-31T07:50:33;98843.97;;;20.39
40199;BMP280;25906;43.536;26.068;2023-10-31T07:53:18;98847.41;;;20.50
40199;BMP280;25906;43.536;26.068;2023-10-31T07:56:03;98839.09;;;20.76
40199;BMP280;25906;43.536;26.068;2023-10-31T07:58:49;98833.66;;;20.87
40199;BMP280;25906;43.536;26.068;2023-10-31T08:01:35;98831.22;;;21.06
40199;BMP280;25906;43.536;26.068;2023-10-31T08:04:20;98822.13;;;21.25
40199;BMP280;25906;43.536;26.068;2023-10-31T08:07:06;98828.16;;;21.37
40199;BMP280;25906;43.536;26.068;2023-10-31T08:09:51;98818.31;;;21.56
40199;BMP280;25906;43.536;26.068;2023-10-31T08:12:36;98818.94;;;21.73
40199;BMP280;25906;43.536;26.068;2023-10-31T08:15:22;98816.66;;;21.83
40199;BMP280;25906;43.536;26.068;2023-10-31T08:18:07;98815.31;;;22.06
40199;BMP280;25906;43.536;26.068;2023-10-31T08:20:53;98807.88;;;22.18
40199;BMP280;25906;43.536;26.068;2023-10-31T08:23:38;98805.31;;;22.31
40199;BMP280;25906;43.536;26.068;2023-10-31T08:26:24;98796.84;;;22.45
40199;BMP280;25906;43.536;26.068;2023-10-31T08:29:09;98795.69;;;22.65
40199;BMP280;25906;43.536;26.068;2023-10-31T08:31:55;98796.59;;;22.73
40199;BMP280;25906;43.536;26.068;2023-10-31T08:34:40;98791.41;;;22.99
40199;BMP280;25906;43.536;26.068;2023-10-31T08:37:26;98790.63;;;23.04
40199;BMP280;25906;43.536;26.068;2023-10-31T08:40:11;98791.72;;;23.14
40199;BMP280;25906;43.536;26.068;2023-10-31T08:42:57;98783.53;;;23.20
40199;BMP280;25906;43.536;26.068;2023-10-31T08:45:42;98778.56;;;23.43
40199;BMP280;25906;43.536;26.068;2023-10-31T08:48:28;98782.75;;;23.62
40199;BMP280;25906;43.536;26.068;2023-10-31T08:51:13;98772.50;;;23.74
40199;BMP280;25906;43.536;26.068;2023-10-31T08:53:58;98758.91;;;23.79
40199;BMP280;25906;43.536;26.068;2023-10-31T08:56:44;98757.06;;;24.01
40199;BMP280;25906;43.536;26.068;2023-10-31T08:59:29;98751.28;;;24.23
40199;BMP280;25906;43.536;26.068;2023-10-31T09:02:15;98740.34;;;24.41
40199;BMP280;25906;43.536;26.068;2023-10-31T09:05:00;98730.66;;;24.59
40199;BMP280;25906;43.536;26.068;2023-10-31T09:07:46;98719.81;;;24.59
40199;BMP280;25906;43.536;26.068;2023-10-31T09:10:33;98713.81;;;24.66
40199;BMP280;25906;43.536;26.068;2023-10-31T09:13:19;98709.38;;;24.76
40199;BMP280;25906;43.536;26.068;2023-10-31T09:16:04;98713.16;;;24.73
40199;BMP280;25906;43.536;26.068;2023-10-31T09:18:50;98697.75;;;24.81
40199;BMP280;25906;43.536;26.068;2023-10-31T09:21:35;98703.41;;;25.04
40199;BMP280;25906;43.536;26.068;2023-10-31T09:24:21;98686.72;;;25.34
40199;BMP280;25906;43.536;26.068;2023-10-31T09:27:06;98679.94;;;25.61
40199;BMP280;25906;43.536;26.068;2023-10-31T09:29:52;98686.66;;;25.67
40199;BMP280;25906;43.536;26.068;2023-10-31T09:32:37;98673.00;;;25.80
40199;BMP280;25906;43.536;26.068;2023-10-31T09:35:23;98665.53;;;26.02
40199;BMP280;25906;43.536;26.068;2023-10-31T09:38:08;98670.72;;;25.92
40199;BMP280;25906;43.536;26.068;2023-10-31T09:40:53;98658.91;;;25.82
40199;BMP280;25906;43.536;26.068;2023-10-31T09:43:39;98655.47;;;25.81
40199;BMP280;25906;43.536;26.068;2023-10-31T09:46:24;98634.78;;;25.99
40199;BMP280;25906;43.536;26.068;2023-10-31T09:49:10;98633.81;;;26.25
40199;BMP280;25906;43.536;26.068;2023-10-31T09:51:56;98632.72;;;26.28
40199;BMP280;25906;43.536;26.068;2023-10-31T09:54:43;98625.88;;;26.34
40199;BMP280;25906;43.536;26.068;2023-10-31T09:57:29;98624.28;;;26.39
40199;BMP280;25906;43.536;26.068;2023-10-31T10:00:14;98612.88;;;26.33
40199;BMP280;25906;43.536;26.068;2023-10-31T10:03:00;98615.41;;;26.38
40199;BMP280;25906;43.536;26.068;2023-10-31T10:05:46;98612.75;;;26.61
40199;BMP280;25906;43.536;26.068;2023-10-31T10:08:36;98613.69;;;26.79
40199;BMP280;25906;43.536;26.068;2023-10-31T10:11:22;98607.88;;;26.67
40199;BMP280;25906;43.536;26.068;2023-10-31T10:14:07;98606.94;;;26.49
40199;BMP280;25906;43.536;26.068;2023-10-31T10:16:55;98600.81;;;26.57
40199;BMP280;25906;43.536;26.068;2023-10-31T10:19:41;98581.81;;;26.64
40199;BMP280;25906;43.536;26.068;2023-10-31T10:22:28;98590.88;;;26.82
40199;BMP280;25906;43.536;26.068;2023-10-31T10:25:15;98585.47;;;27.04
40199;BMP280;25906;43.536;26.068;2023-10-31T10:28:02;98583.31;;;27.03
40199;BMP280;25906;43.536;26.068;2023-10-31T10:30:48;98584.03;;;26.96
40199;BMP280;25906;43.536;26.068;2023-10-31T10:33:34;98575.31;;;26.90
40199;BMP280;25906;43.536;26.068;2023-10-31T10:36:19;98580.22;;;26.99
40199;BMP280;25906;43.536;26.068;2023-10-31T10:39:05;98564.09;;;26.93
40199;BMP280;25906;43.536;26.068;2023-10-31T10:41:55;98571.72;;;27.02
40199;BMP280;25906;43.536;26.068;2023-10-31T10:44:43;98564.44;;;26.75
40199;BMP280;25906;43.536;26.068;2023-10-31T10:47:31;98563.00;;;26.89
40199;BMP280;25906;43.536;26.068;2023-10-31T10:50:19;98556.31;;;26.90
40199;BMP280;25906;43.536;26.068;2023-10-31T10:53:12;98550.13;;;26.89
40199;BMP280;25906;43.536;26.068;2023-10-31T10:56:13;98546.72;;;27.19
40199;BMP280;25906;43.536;26.068;2023-10-31T10:59:07;98545.91;;;27.49
40199;BMP280;25906;43.536;26.068;2023-10-31T11:01:54;98542.34;;;27.16
40199;BMP280;25906;43.536;26.068;2023-10-31T11:04:41;98528.56;;;27.14
40199;BMP280;25906;43.536;26.068;2023-10-31T11:07:27;98535.44;;;27.30
40199;BMP280;25906;43.536;26.068;2023-10-31T11:10:14;98530.16;;;27.47
40199;BMP280;25906;43.536;26.068;2023-10-31T11:12:59;98520.75;;;27.33
40199;BMP280;25906;43.536;26.068;2023-10-31T11:15:46;98515.22;;;27.63
40199;BMP280;25906;43.536;26.068;2023-10-31T11:18:31;98510.34;;;27.54
40199;BMP280;25906;43.536;26.068;2023-10-31T11:21:17;98501.31;;;27.44
40199;BMP280;25906;43.536;26.068;2023-10-31T11:24:03;98491.88;;;27.53
40199;BMP280;25906;43.536;26.068;2023-10-31T11:26:53;98488.44;;;27.52
40199;BMP280;25906;43.536;26.068;2023-10-31T11:29:42;98485.22;;;27.78
40199;BMP280;25906;43.536;26.068;2023-10-31T11:32:28;98486.25;;;27.90
40199;BMP280;25906;43.536;26.068;2023-10-31T11:35:13;98474.72;;;28.15
40199;BMP280;25906;43.536;26.068;2023-10-31T11:38:02;98468.13;;;28.18
40199;BMP280;25906;43.536;26.068;2023-10-31T11:46:24;98452.84;;;27.97
40199;BMP280;25906;43.536;26.068;2023-10-31T11:49:10;98449.69;;;28.09
40199;BMP280;25906;43.536;26.068;2023-10-31T11:51:56;98445.69;;;28.10
40199;BMP280;25906;43.536;26.068;2023-10-31T11:54:42;98432.78;;;28.35
40199;BMP280;25906;43.536;26.068;2023-10-31T11:57:28;98442.69;;;28.47
40199;BMP280;25906;43.536;26.068;2023-10-31T12:00:21;98437.31;;;28.40
40199;BMP280;25906;43.536;26.068;2023-10-31T12:03:07;98435.63;;;28.44
40199;BMP280;25906;43.536;26.068;2023-10-31T12:05:57;98429.56;;;28.53
40199;BMP280;25906;43.536;26.068;2023-10-31T12:08:43;98423.03;;;28.49
40199;BMP280;25906;43.536;26.068;2023-10-31T12:11:29;98431.31;;;28.58
40199;BMP280;25906;43.536;26.068;2023-10-31T12:14:18;98427.34;;;28.35
40199;BMP280;25906;43.536;26.068;2023-10-31T12:17:04;98419.19;;;28.35
40199;BMP280;25906;43.536;26.068;2023-10-31T12:19:54;98426.50;;;28.49
40199;BMP280;25906;43.536;26.068;2023-10-31T12:22:40;98412.16;;;28.49
40199;BMP280;25906;43.536;26.068;2023-10-31T12:25:25;98411.50;;;28.41
40199;BMP280;25906;43.536;26.068;2023-10-31T12:28:16;98405.81;;;28.29
40199;BMP280;25906;43.536;26.068;2023-10-31T12:31:02;98402.00;;;28.25
40199;BMP280;25906;43.536;26.068;2023-10-31T12:33:47;98399.66;;;28.29
40199;BMP280;25906;43.536;26.068;2023-10-31T12:36:35;98397.38;;;28.18
40199;BMP280;25906;43.536;26.068;2023-10-31T12:39:23;98393.78;;;28.32
40199;BMP280;25906;43.536;26.068;2023-10-31T12:42:09;98394.19;;;28.29
40199;BMP280;25906;43.536;26.068;2023-10-31T12:44:55;98390.97;;;28.47
40199;BMP280;25906;43.536;26.068;2023-10-31T12:47:41;98388.66;;;28.19
40199;BMP280;25906;43.536;26.068;2023-10-31T12:50:27;98383.56;;;28.23
40199;BMP280;25906;43.536;26.068;2023-10-31T12:53:23;98367.66;;;28.12
40199;BMP280;25906;43.536;26.068;2023-10-31T12:56:08;98374.44;;;28.03
40199;BMP280;25906;43.536;26.068;2023-10-31T12:58:57;98370.72;;;27.91
40199;BMP280;25906;43.536;26.068;2023-10-31T13:01:44;98375.66;;;27.85
40199;BMP280;25906;43.536;26.068;2023-10-31T13:04:31;98372.44;;;27.79
40199;BMP280;25906;43.536;26.068;2023-10-31T13:07:26;98376.13;;;27.74
40199;BMP280;25906;43.536;26.068;2023-10-31T13:10:12;98375.81;;;27.63
40199;BMP280;25906;43.536;26.068;2023-10-31T13:12:57;98366.78;;;27.60
40199;BMP280;25906;43.536;26.068;2023-10-31T13:15:43;98369.31;;;27.58
40199;BMP280;25906;43.536;26.068;2023-10-31T13:18:28;98363.53;;;27.54
40199;BMP280;25906;43.536;26.068;2023-10-31T13:21:14;98364.41;;;27.57
40199;BMP280;25906;43.536;26.068;2023-10-31T13:24:01;98359.31;;;27.36
40199;BMP280;25906;43.536;26.068;2023-10-31T13:26:47;98357.44;;;27.39
40199;BMP280;25906;43.536;26.068;2023-10-31T13:29:36;98356.56;;;27.36
40199;BMP280;25906;43.536;26.068;2023-10-31T13:32:22;98357.03;;;27.17
40199;BMP280;25906;43.536;26.068;2023-10-31T13:35:07;98355.06;;;27.10
40199;BMP280;25906;43.536;26.068;2023-10-31T13:37:56;98354.66;;;27.14
40199;BMP280;25906;43.536;26.068;2023-10-31T13:40:41;98356.38;;;27.02
40199;BMP280;25906;43.536;26.068;2023-10-31T13:43:27;98356.19;;;27.00
40199;BMP280;25906;43.536;26.068;2023-10-31T13:46:12;98351.88;;;26.82
40199;BMP280;25906;43.536;26.068;2023-10-31T13:48:58;98349.03;;;26.72
40199;BMP280;25906;43.536;26.068;2023-10-31T13:51:45;98352.88;;;26.46
40199;BMP280;25906;43.536;26.068;2023-10-31T13:54:30;98351.63;;;26.47
40199;BMP280;25906;43.536;26.068;2023-10-31T13:57:15;98350.91;;;26.24
40199;BMP280;25906;43.536;26.068;2023-10-31T14:00:01;98351.44;;;26.08
40199;BMP280;25906;43.536;26.068;2023-10-31T14:02:46;98346.19;;;25.95
40199;BMP280;25906;43.536;26.068;2023-10-31T14:05:32;98348.00;;;25.77
40199;BMP280;25906;43.536;26.068;2023-10-31T14:08:17;98342.53;;;25.62
40199;BMP280;25906;43.536;26.068;2023-10-31T14:11:04;98351.19;;;25.53
40199;BMP280;25906;43.536;26.068;2023-10-31T14:13:49;98351.13;;;25.38
40199;BMP280;25906;43.536;26.068;2023-10-31T14:16:37;98350.50;;;25.24
40199;BMP280;25906;43.536;26.068;2023-10-31T14:19:23;98339.84;;;25.19
40199;BMP280;25906;43.536;26.068;2023-10-31T14:22:11;98343.91;;;24.97
40199;BMP280;25906;43.536;26.068;2023-10-31T14:24:56;98339.81;;;25.03
40199;BMP280;25906;43.536;26.068;2023-10-31T14:27:43;98343.69;;;24.87
40199;BMP280;25906;43.536;26.068;2023-10-31T14:30:28;98335.84;;;24.76
40199;BMP280;25906;43.536;26.068;2023-10-31T14:33:14;98334.41;;;24.75
40199;BMP280;25906;43.536;26.068;2023-10-31T14:35:59;98330.13;;;24.59
40199;BMP280;25906;43.536;26.068;2023-10-31T14:38:45;98322.06;;;24.38
40199;BMP280;25906;43.536;26.068;2023-10-31T14:41:30;98319.59;;;24.20
40199;BMP280;25906;43.536;26.068;2023-10-31T14:44:18;98310.75;;;23.99
40199;BMP280;25906;43.536;26.068;2023-10-31T14:47:05;98304.41;;;23.75
40199;BMP280;25906;43.536;26.068;2023-10-31T14:49:50;98299.84;;;23.70
40199;BMP280;25906;43.536;26.068;2023-10-31T14:52:36;98302.00;;;23.51
40199;BMP280;25906;43.536;26.068;2023-10-31T14:55:21;98297.44;;;23.46
40199;BMP280;25906;43.536;26.068;2023-10-31T14:58:07;98306.31;;;23.34
40199;BMP280;25906;43.536;26.068;2023-10-31T15:00:55;98303.41;;;23.19
40199;BMP280;25906;43.536;26.068;2023-10-31T15:03:40;98304.06;;;22.98
40199;BMP280;25906;43.536;26.068;2023-10-31T15:06:26;98300.19;;;22.94
40199;BMP280;25906;43.536;26.068;2023-10-31T15:09:12;98298.66;;;22.72
40199;BMP280;25906;43.536;26.068;2023-10-31T15:11:57;98308.22;;;22.73
40199;BMP280;25906;43.536;26.068;2023-10-31T15:14:42;98320.97;;;22.73
40199;BMP280;25906;43.536;26.068;2023-10-31T15:17:28;98322.16;;;22.45
40199;BMP280;25906;43.536;26.068;2023-10-31T15:20:13;98319.09;;;22.23
40199;BMP280;25906;43.536;26.068;2023-10-31T15:22:59;98320.31;;;22.09
40199;BMP280;25906;43.536;26.068;2023-10-31T15:25:44;98316.69;;;21.87
40199;BMP280;25906;43.536;26.068;2023-10-31T15:28:30;98312.03;;;21.69
40199;BMP280;25906;43.536;26.068;2023-10-31T15:31:16;98310.69;;;21.63
40199;BMP280;25906;43.536;26.068;2023-10-31T15:34:01;98313.06;;;21.48
40199;BMP280;25906;43.536;26.068;2023-10-31T15:36:48;98312.91;;;21.40
40199;BMP280;25906;43.536;26.068;2023-10-31T15:39:33;98318.03;;;21.62
40199;BMP280;25906;43.536;26.068;2023-10-31T15:42:19;98314.38;;;21.41
40199;BMP280;25906;43.536;26.068;2023-10-31T15:45:05;98306.53;;;21.62
40199;BMP280;25906;43.536;26.068;2023-10-31T15:47:51;98318.59;;;21.74
40199;BMP280;25906;43.536;26.068;2023-10-31T15:50:36;98323.41;;;21.62
40199;BMP280;25906;43.536;26.068;2023-10-31T15:53:21;98322.81;;;21.51
40199;BMP280;25906;43.536;26.068;2023-10-31T15:56:09;98336.84;;;21.44
40199;BMP280;25906;43.536;26.068;2023-10-31T15:58:54;98339.00;;;21.26
40199;BMP280;25906;43.536;26.068;2023-10-31T16:01:40;98337.94;;;21.35